1898 Tropical Storm NOT_NAMED (1898275N11302)


IBTrACS version v04r00. Visit IBTrACS website for data access.
Please direct all questions to the IBTrACS Q and A forum

Storm track - Intensity - Wind Radii - Intensity Data - Source Data - All data

Summary Information

Storm ID 1898275N11302
Start Oct 2 06Z
Landfall Oct 10 18Z
Max Intensity 60 kt (Oct 11 12Z)
End Oct 14 18Z
ATCF IDs AL091898
Track status Best track data.

Storm track plot

Map of storm track

Intensity plots

Map of storm track

Radial wind information

No radial wind information for this storm


Position and Intensity Table

BASIN ISO_TIME_________ NATURE LAT LON WMO WIND USA WIND MLC WIND
degrees north degrees east kts kts kts
NA 1898-10-02 06:00:00 TS 11.40 -57.70 50 50
NA 09:00:00 TS 11.55 -58.01 50
NA 12:00:00 TS 11.70 -58.30 50 50
NA 15:00:00 TS 11.85 -58.54 50
NA 18:00:00 TS 12.00 -58.80 50 50
NA 21:00:00 TS 12.14 -59.14 50
NA 1898-10-03 00:00:00 TS 12.30 -59.50 50 50
NA 03:00:00 TS 12.50 -59.83 50
NA 06:00:00 TS 12.70 -60.20 50 50
NA 09:00:00 TS 12.86 -60.67 50
NA 12:00:00 TS 13.00 -61.20 50 50
NA 15:00:00 TS 13.14 -61.74 50
NA 18:00:00 TS 13.30 -62.30 50 50
NA 21:00:00 TS 13.49 -62.84 50
NA 1898-10-04 00:00:00 TS 13.70 -63.40 50 50
NA 03:00:00 TS 13.91 -64.00 50
NA 06:00:00 TS 14.10 -64.60 50 50
NA 09:00:00 TS 14.26 -65.15 50
NA 12:00:00 TS 14.40 -65.70 50 50
NA 15:00:00 TS 14.56 -66.29 50
NA 18:00:00 TS 14.70 -66.90 50 50
NA 21:00:00 TS 14.81 -67.51 50
NA 1898-10-05 00:00:00 TS 14.90 -68.10 50 50
NA 03:00:00 TS 15.00 -68.66 50
NA 06:00:00 TS 15.10 -69.20 50 50
NA 09:00:00 TS 15.19 -69.76 50
NA 12:00:00 TS 15.30 -70.30 50 50
NA 15:00:00 TS 15.45 -70.81 50
NA 18:00:00 TS 15.60 -71.30 50 50
NA 21:00:00 TS 15.71 -71.81 50
NA 1898-10-06 00:00:00 TS 15.80 -72.30 50 50
NA 03:00:00 TS 15.85 -72.75 50
NA 06:00:00 TS 15.90 -73.20 50 50
NA 09:00:00 TS 16.00 -73.69 50
NA 12:00:00 TS 16.10 -74.20 50 50
NA 15:00:00 TS 16.16 -74.72 50
NA 18:00:00 TS 16.20 -75.20 50 50
NA 21:00:00 TS 16.25 -75.62 50
NA 1898-10-07 00:00:00 TS 16.30 -76.00 50 50
NA 03:00:00 TS 16.33 -76.39 50
NA 06:00:00 TS 16.40 -76.80 50 50
NA 09:00:00 TS 16.54 -77.26 50
NA 12:00:00 TS 16.70 -77.70 50 50
NA 15:00:00 TS 16.84 -78.02 50
NA 18:00:00 TS 17.00 -78.30 50 50
NA 21:00:00 TS 17.19 -78.60 50
NA 1898-10-08 00:00:00 TS 17.40 -78.90 50 50
NA 03:00:00 TS 17.59 -79.21 50
NA 06:00:00 TS 17.80 -79.50 50 50
NA 09:00:00 TS 18.06 -79.76 50
NA 12:00:00 TS 18.30 -80.00 50 50
NA 15:00:00 TS 18.45 -80.20 50
NA 18:00:00 TS 18.60 -80.40 50 50
NA 21:00:00 TS 18.83 -80.65 50
NA 1898-10-09 00:00:00 TS 19.10 -80.90 50 50
NA 03:00:00 TS 19.39 -81.11 50
NA 06:00:00 TS 19.70 -81.30 50 50
NA 09:00:00 TS 20.02 -81.51 50
NA 12:00:00 TS 20.07 -81.90 50 50 30
NA 15:00:00 TS 20.15 -82.16 50 30
NA 18:00:00 TS 20.29 -82.34 50 50 30
NA 21:00:00 TS 20.53 -82.48 50 32
NA 1898-10-10 00:00:00 TS 20.87 -82.50 50 50 35
NA 03:00:00 TS 21.20 -82.48 50 40
NA 06:00:00 TS 21.53 -82.43 50 50 45
NA 09:00:00 TS 21.90 -82.39 50 50
NA 12:00:00 TS 22.27 -82.30 50 50 55
NA 15:00:00 TS 22.60 -82.17 47 50
NA 18:00:00 TS 22.90 -81.97 45 45 45
NA 21:00:00 TS 23.19 -81.69 47 50
NA 1898-10-11 00:00:00 TS 23.47 -81.33 50 50 55
NA 03:00:00 TS 23.75 -80.93 52 55
NA 06:00:00 TS 24.03 -80.50 55 55 55
NA 09:00:00 TS 24.29 -80.12 57 55
NA 12:00:00 TS 24.67 -79.70 60 60 55
NA 15:00:00 TS 25.26 -79.20 60 55
NA 18:00:00 TS 26.00 -78.63 60 60 55
NA 21:00:00 TS 26.81 -78.02 60 55
NA 1898-10-12 00:00:00 TS 27.60 -77.33 60 60 55
NA 03:00:00 TS 28.23 -76.59 60 52
NA 06:00:00 TS 28.87 -75.96 60 60 50
NA 09:00:00 TS 29.58 -75.43 57 45
NA 12:00:00 TS 30.33 -74.93 55 55 40
NA 15:00:00 TS 31.13 -74.45 52
NA 18:00:00 TS 31.80 -73.50 50 50
NA 21:00:00 TS 32.65 -72.44 50
NA 1898-10-13 00:00:00 TS 33.40 -71.40 50 50
NA 03:00:00 TS 33.82 -70.56 50
NA 06:00:00 TS 34.10 -69.80 50 50
NA 09:00:00 TS 34.42 -68.99 50
NA 12:00:00 TS 34.70 -68.20 50 50
NA 15:00:00 TS 34.92 -67.43 50
NA 18:00:00 TS 35.10 -66.70 50 50
NA 21:00:00 TS 35.25 -65.99 50
NA 1898-10-14 00:00:00 TS 35.40 -65.30 50 50
NA 03:00:00 TS 35.59 -64.58 50
NA 06:00:00 TS 35.80 -63.90 50 50
NA 09:00:00 TS 35.95 -63.28 50
NA 12:00:00 TS 36.20 -62.70 50 50
NA 15:00:00 TS 36.64 -62.15 50
NA 18:00:00 TS 37.20 -61.60 50 50

Source Information

Agency Information
USA hurdat2-1851-2018-051019.txt:Line=9116:UNNAMED
TOKYO
CMA
HKO
NEWDELHI
REUNION
BOM
NADI
WELLINGTON
DS824
TD9636
TD9635
NEUMANN
MLC

All available IBTrACS Data

SEASON BASIN SUBBASIN ISO_TIME_________ NATURE LAT LON WMO WIND WMO AGENCY DIST2LAND LANDFALL IFLAG USA AGENCY USA ATCF_ID USA LAT USA LON USA STATUS USA WIND USA SSHS MLC LAT MLC LON MLC CLASS MLC WIND STORM SPEED STORM DIR
Year degrees north degrees east kts km km degrees north degrees east kts 1 degrees north degrees east kts kts degrees
1898 NA NA 1898-10-02 06:00:00 TS 11.40 -57.70 50 hurdat_atl 368 339 O_____________ hurdat_atl AL091898 11.40 -57.70 TS 50 0 7 296
1898 NA NA 09:00:00 TS 11.55 -58.01 342 315 P_____________ AL091898 11.55 -58.01 TS 50 0 7 297
1898 NA NA 12:00:00 TS 11.70 -58.30 50 hurdat_atl 315 299 O_____________ hurdat_atl AL091898 11.70 -58.30 TS 50 0 6 300
1898 NA NA 15:00:00 TS 11.85 -58.54 299 280 P_____________ AL091898 11.85 -58.54 TS 50 0 6 302
1898 NA NA 18:00:00 TS 12.00 -58.80 50 hurdat_atl 280 259 O_____________ hurdat_atl AL091898 12.00 -58.80 TS 50 0 7 297
1898 NA NA 21:00:00 TS 12.14 -59.14 259 242 P_____________ AL091898 12.14 -59.14 TS 50 0 7 294
1898 NA NA 1898-10-03 00:00:00 TS 12.30 -59.50 50 hurdat_atl 242 235 O_____________ hurdat_atl AL091898 12.30 -59.50 TS 50 0 8 298
1898 NA CS 03:00:00 TS 12.50 -59.83 240 234 P_____________ AL091898 12.50 -59.83 TS 50 0 8 300
1898 NA CS 06:00:00 TS 12.70 -60.20 50 hurdat_atl 240 236 O_____________ hurdat_atl AL091898 12.70 -60.20 TS 50 0 9 293
1898 NA CS 09:00:00 TS 12.86 -60.67 248 246 P_____________ AL091898 12.86 -60.67 TS 50 0 10 287
1898 NA CS 12:00:00 TS 13.00 -61.20 50 hurdat_atl 257 257 O_____________ hurdat_atl AL091898 13.00 -61.20 TS 50 0 11 285
1898 NA CS 15:00:00 TS 13.14 -61.74 268 268 P_____________ AL091898 13.14 -61.74 TS 50 0 11 286
1898 NA CS 18:00:00 TS 13.30 -62.30 50 hurdat_atl 291 291 O_____________ hurdat_atl AL091898 13.30 -62.30 TS 50 0 11 288
1898 NA CS 21:00:00 TS 13.49 -62.84 313 313 P_____________ AL091898 13.49 -62.84 TS 50 0 11 291
1898 NA CS 1898-10-04 00:00:00 TS 13.70 -63.40 50 hurdat_atl 337 337 O_____________ hurdat_atl AL091898 13.70 -63.40 TS 50 0 12 290
1898 NA CS 03:00:00 TS 13.91 -64.00 369 369 P_____________ AL091898 13.91 -64.00 TS 50 0 12 289
1898 NA CS 06:00:00 TS 14.10 -64.60 50 hurdat_atl 394 394 O_____________ hurdat_atl AL091898 14.10 -64.60 TS 50 0 12 287
1898 NA CS 09:00:00 TS 14.26 -65.15 416 395 P_____________ AL091898 14.26 -65.15 TS 50 0 11 286
1898 NA CS 12:00:00 TS 14.40 -65.70 50 hurdat_atl 395 380 O_____________ hurdat_atl AL091898 14.40 -65.70 TS 50 0 11 285
1898 NA CS 15:00:00 TS 14.56 -66.29 369 358 P_____________ AL091898 14.56 -66.29 TS 50 0 12 284
1898 NA CS 18:00:00 TS 14.70 -66.90 50 hurdat_atl 358 346 O_____________ hurdat_atl AL091898 14.70 -66.90 TS 50 0 12 282
1898 NA CS 21:00:00 TS 14.81 -67.51 348 341 P_____________ AL091898 14.81 -67.51 TS 50 0 12 280
1898 NA CS 1898-10-05 00:00:00 TS 14.90 -68.10 50 hurdat_atl 349 348 O_____________ hurdat_atl AL091898 14.90 -68.10 TS 50 0 11 280
1898 NA CS 03:00:00 TS 15.00 -68.66 349 342 P_____________ AL091898 15.00 -68.66 TS 50 0 11 281
1898 NA CS 06:00:00 TS 15.10 -69.20 50 hurdat_atl 344 324 O_____________ hurdat_atl AL091898 15.10 -69.20 TS 50 0 11 280
1898 NA CS 09:00:00 TS 15.19 -69.76 318 282 P_____________ AL091898 15.19 -69.76 TS 50 0 11 281
1898 NA CS 12:00:00 TS 15.30 -70.30 50 hurdat_atl 282 254 O_____________ hurdat_atl AL091898 15.30 -70.30 TS 50 0 10 284
1898 NA CS 15:00:00 TS 15.45 -70.81 254 224 P_____________ AL091898 15.45 -70.81 TS 50 0 10 287
1898 NA CS 18:00:00 TS 15.60 -71.30 50 hurdat_atl 224 212 O_____________ hurdat_atl AL091898 15.60 -71.30 TS 50 0 10 285
1898 NA CS 21:00:00 TS 15.71 -71.81 216 211 P_____________ AL091898 15.71 -71.81 TS 50 0 10 282
1898 NA CS 1898-10-06 00:00:00 TS 15.80 -72.30 50 hurdat_atl 223 223 O_____________ hurdat_atl AL091898 15.80 -72.30 TS 50 0 9 278
1898 NA CS 03:00:00 TS 15.85 -72.75 250 241 P_____________ AL091898 15.85 -72.75 TS 50 0 9 277
1898 NA CS 06:00:00 TS 15.90 -73.20 50 hurdat_atl 243 224 O_____________ hurdat_atl AL091898 15.90 -73.20 TS 50 0 9 279
1898 NA CS 09:00:00 TS 16.00 -73.69 224 212 P_____________ AL091898 16.00 -73.69 TS 50 0 10 282
1898 NA CS 12:00:00 TS 16.10 -74.20 50 hurdat_atl 215 215 O_____________ hurdat_atl AL091898 16.10 -74.20 TS 50 0 10 279
1898 NA CS 15:00:00 TS 16.16 -74.72 218 217 P_____________ AL091898 16.16 -74.72 TS 50 0 10 276
1898 NA CS 18:00:00 TS 16.20 -75.20 50 hurdat_atl 217 200 O_____________ hurdat_atl AL091898 16.20 -75.20 TS 50 0 9 276
1898 NA CS 21:00:00 TS 16.25 -75.62 200 180 P_____________ AL091898 16.25 -75.62 TS 50 0 8 277
1898 NA CS 1898-10-07 00:00:00 TS 16.30 -76.00 50 hurdat_atl 180 178 O_____________ hurdat_atl AL091898 16.30 -76.00 TS 50 0 8 276
1898 NA CS 03:00:00 TS 16.33 -76.39 178 151 P_____________ AL091898 16.33 -76.39 TS 50 0 8 277
1898 NA CS 06:00:00 TS 16.40 -76.80 50 hurdat_atl 151 134 O_____________ hurdat_atl AL091898 16.40 -76.80 TS 50 0 9 283
1898 NA CS 09:00:00 TS 16.54 -77.26 134 119 P_____________ AL091898 16.54 -77.26 TS 50 0 9 289
1898 NA CS 12:00:00 TS 16.70 -77.70 50 hurdat_atl 123 119 O_____________ hurdat_atl AL091898 16.70 -77.70 TS 50 0 8 293
1898 NA CS 15:00:00 TS 16.84 -78.02 127 113 P_____________ AL091898 16.84 -78.02 TS 50 0 6 298
1898 NA CS 18:00:00 TS 17.00 -78.30 50 hurdat_atl 119 112 O_____________ hurdat_atl AL091898 17.00 -78.30 TS 50 0 7 302
1898 NA CS 21:00:00 TS 17.19 -78.60 113 99 P_____________ AL091898 17.19 -78.60 TS 50 0 7 305
1898 NA CS 1898-10-08 00:00:00 TS 17.40 -78.90 50 hurdat_atl 103 100 O_____________ hurdat_atl AL091898 17.40 -78.90 TS 50 0 7 305
1898 NA CS 03:00:00 TS 17.59 -79.21 108 108 P_____________ AL091898 17.59 -79.21 TS 50 0 7 305
1898 NA CS 06:00:00 TS 17.80 -79.50 50 hurdat_atl 124 124 O_____________ hurdat_atl AL091898 17.80 -79.50 TS 50 0 7 311
1898 NA CS 09:00:00 TS 18.06 -79.76 148 148 P_____________ AL091898 18.06 -79.76 TS 50 0 7 316
1898 NA CS 12:00:00 TS 18.30 -80.00 50 hurdat_atl 169 169 O_____________ hurdat_atl AL091898 18.30 -80.00 TS 50 0 6 314
1898 NA CS 15:00:00 TS 18.45 -80.20 191 191 P_____________ AL091898 18.45 -80.20 TS 50 0 5 308
1898 NA CS 18:00:00 TS 18.60 -80.40 50 hurdat_atl 215 215 O_____________ hurdat_atl AL091898 18.60 -80.40 TS 50 0 6 312
1898 NA CS 21:00:00 TS 18.83 -80.65 241 241 P_____________ AL091898 18.83 -80.65 TS 50 0 7 317
1898 NA CS 1898-10-09 00:00:00 TS 19.10 -80.90 50 hurdat_atl 281 281 O_____________ hurdat_atl AL091898 19.10 -80.90 TS 50 0 7 323
1898 NA CS 03:00:00 TS 19.39 -81.11 281 246 P_____________ AL091898 19.39 -81.11 TS 50 0 7 328
1898 NA CS 06:00:00 TS 19.70 -81.30 50 hurdat_atl 246 206 O_____________ hurdat_atl AL091898 19.70 -81.30 TS 50 0 7 328
1898 NA CS 09:00:00 TS 20.02 -81.51 206 172 P_____________ AL091898 20.02 -81.51 TS 50 0 7 303
1898 NA CS 12:00:00 TS 20.07 -81.90 50 hurdat_atl 172 162 O____________O hurdat_atl AL091898 20.30 -81.70 TS 50 0 18.20 -83.50 TD 30 6 282
1898 NA CS 15:00:00 TS 20.15 -82.16 158 133 P____________P AL091898 20.51 -81.82 TS 50 0 18.70 -83.51 TD 30 5 299
1898 NA CS 18:00:00 TS 20.29 -82.34 50 hurdat_atl 133 105 O____________O hurdat_atl AL091898 20.70 -81.90 TS 50 0 19.20 -83.50 TD 30 5 321
1898 NA CS 21:00:00 TS 20.53 -82.48 105 73 P____________P AL091898 20.94 -82.01 TS 50 0 19.70 -83.43 TD 32 6 345
1898 NA CS 1898-10-10 00:00:00 TS 20.87 -82.50 50 hurdat_atl 63 38 O____________O hurdat_atl AL091898 21.20 -82.10 TS 50 0 20.20 -83.30 TS 35 7 359
1898 NA CS 03:00:00 TS 21.20 -82.48 38 15 P____________P AL091898 21.44 -82.17 TS 50 0 20.70 -83.12 TS 40 7 5
1898 NA CS 06:00:00 TS 21.53 -82.43 50 hurdat_atl 15 10 O____________O hurdat_atl AL091898 21.70 -82.20 TS 50 0 21.20 -82.90 TS 45 7 7
1898 NA CS 09:00:00 TS 21.90 -82.39 30 24 P____________P AL091898 21.99 -82.21 TS 50 0 21.72 -82.73 TS 50 7 10
1898 NA CS 12:00:00 TS 22.27 -82.30 50 hurdat_atl 15 0 O____________O hurdat_atl AL091898 22.30 -82.20 TS 50 0 22.20 -82.50 TS 55 7 16
1898 NA CS 15:00:00 TS 22.60 -82.17 11 0 P____________P AL091898 22.61 -82.19 TS 47 0 22.57 -82.14 TS 50 7 26
1898 NA NA 18:00:00 TS 22.90 -81.97 45 hurdat_atl 0 0 O____________O hurdat_atl AL091898 22.90 -82.10 TS 45 0 22.90 -81.70 TS 45 7 37
1898 NA NA 21:00:00 TS 23.19 -81.69 11 11 P____________P AL091898 23.16 -81.90 TS 47 0 23.25 -81.26 TS 50 8 46
1898 NA NA 1898-10-11 00:00:00 TS 23.47 -81.33 50 hurdat_atl 44 44 O____________O hurdat_atl AL091898 23.40 -81.60 TS 50 0 23.60 -80.80 TS 55 9 51
1898 NA NA 03:00:00 TS 23.75 -80.93 78 78 P____________P AL091898 23.64 -81.22 TS 52 0 23.95 -80.34 TS 55 10 53
1898 NA NA 06:00:00 TS 24.03 -80.50 55 hurdat_atl 111 91 O____________O hurdat_atl AL091898 23.90 -80.80 TS 55 0 24.30 -79.90 TS 55 9 54
1898 NA NA 09:00:00 TS 24.29 -80.12 94 82 P____________P AL091898 24.12 -80.40 TS 57 0 24.63 -79.55 TS 55 10 49
1898 NA NA 12:00:00 TS 24.67 -79.70 60 hurdat_atl 83 83 O____________O hurdat_atl AL091898 24.50 -80.00 TS 60 0 25.00 -79.10 TS 55 13 41
1898 NA NA 15:00:00 TS 25.26 -79.20 105 97 P____________P AL091898 25.15 -79.63 TS 60 0 25.48 -78.35 TS 55 17 36
1898 NA NA 18:00:00 TS 26.00 -78.63 60 hurdat_atl 112 112 O____________O hurdat_atl AL091898 26.00 -79.20 TS 60 0 26.00 -77.50 TS 55 19 35
1898 NA NA 21:00:00 TS 26.81 -78.02 189 189 P____________P AL091898 26.96 -78.64 TS 60 0 26.50 -76.78 TS 55 20 36
1898 NA NA 1898-10-12 00:00:00 TS 27.60 -77.33 60 hurdat_atl 281 281 O____________O hurdat_atl AL091898 27.90 -78.00 TS 60 0 27.00 -76.00 TS 55 19 42
1898 NA NA 03:00:00 TS 28.23 -76.59 369 369 P____________P AL091898 28.59 -77.36 TS 60 0 27.50 -75.04 TS 52 18 43
1898 NA NA 06:00:00 TS 28.87 -75.96 60 hurdat_atl 440 440 O____________O hurdat_atl AL091898 29.20 -76.70 TS 60 0 28.00 -74.00 TS 50 17 37
1898 NA NA 09:00:00 TS 29.58 -75.43 510 490 P____________P AL091898 29.85 -76.04 TS 57 0 28.50 -72.99 TS 45 17 32
1898 NA NA 12:00:00 TS 30.33 -74.93 55 hurdat_atl 496 442 O____________O hurdat_atl AL091898 30.50 -75.30 TS 55 0 29.00 -72.00 TS 40 18 29
1898 NA NA 15:00:00 TS 31.13 -74.45 442 420 P_____________ AL091898 31.13 -74.45 TS 52 0 TS 19 40
1898 NA NA 18:00:00 TS 31.80 -73.50 50 hurdat_atl 426 421 O_____________ hurdat_atl AL091898 31.80 -73.50 TS 50 0 23 48
1898 NA NA 21:00:00 TS 32.65 -72.44 441 435 P_____________ AL091898 32.65 -72.44 TS 50 0 24 48
1898 NA NA 1898-10-13 00:00:00 TS 33.40 -71.40 50 hurdat_atl 460 460 O_____________ hurdat_atl AL091898 33.40 -71.40 TS 50 0 20 53
1898 NA NA 03:00:00 TS 33.82 -70.56 498 498 P_____________ AL091898 33.82 -70.56 TS 50 0 15 62
1898 NA NA 06:00:00 TS 34.10 -69.80 50 hurdat_atl 551 551 O_____________ hurdat_atl AL091898 34.10 -69.80 TS 50 0 14 65
1898 NA NA 09:00:00 TS 34.42 -68.99 610 610 P_____________ AL091898 34.42 -68.99 TS 50 0 14 66
1898 NA NA 12:00:00 TS 34.70 -68.20 50 hurdat_atl 672 672 O_____________ hurdat_atl AL091898 34.70 -68.20 TS 50 0 14 69
1898 NA NA 15:00:00 TS 34.92 -67.43 739 739 P_____________ AL091898 34.92 -67.43 TS 50 0 13 72
1898 NA NA 18:00:00 TS 35.10 -66.70 50 hurdat_atl 788 784 O_____________ hurdat_atl AL091898 35.10 -66.70 TS 50 0 12 74
1898 NA NA 21:00:00 TS 35.25 -65.99 802 792 P_____________ AL091898 35.25 -65.99 TS 50 0 12 75
1898 NA NA 1898-10-14 00:00:00 TS 35.40 -65.30 50 hurdat_atl 810 810 O_____________ hurdat_atl AL091898 35.40 -65.30 TS 50 0 12 73
1898 NA NA 03:00:00 TS 35.59 -64.58 824 824 P_____________ AL091898 35.59 -64.58 TS 50 0 12 71
1898 NA NA 06:00:00 TS 35.80 -63.90 50 hurdat_atl 841 841 O_____________ hurdat_atl AL091898 35.80 -63.90 TS 50 0 11 71
1898 NA NA 09:00:00 TS 35.95 -63.28 851 839 P_____________ AL091898 35.95 -63.28 TS 50 0 10 68
1898 NA NA 12:00:00 TS 36.20 -62.70 50 hurdat_atl 841 811 O_____________ hurdat_atl AL091898 36.20 -62.70 TS 50 0 11 53
1898 NA NA 15:00:00 TS 36.64 -62.15 814 767 P_____________ AL091898 36.64 -62.15 TS 50 0 13 41
1898 NA NA 18:00:00 TS 37.20 -61.60 50 hurdat_atl 767 O_____________ hurdat_atl AL091898 37.20 -61.60 TS 50 0 14 38